Time;durP1;ratioP1;P1;durP2;ratioP2;P2;SDS_P1;SDS_P2;PMS_P1;PMS_P2;Temp;Humidity;BMP_temperature;BMP_pressure;BME280_temperature;BME280_humidity;BME280_pressure;Samples;Min_cycle;Max_cycle;Signal;HPM_P1;HPM_P2
2022/03/07 00:01:14;;;;;;;14.13;9.27;;;27.70;85.00;;;;;;5068208;28;20040;-40
2022/03/07 00:03:40;;;;;;;14.73;7.95;;;27.60;84.80;;;;;;5076824;28;20012;-47
2022/03/07 00:06:07;;;;;;;17.85;8.10;;;27.60;84.30;;;;;;5075219;28;20087;-46
2022/03/07 00:08:34;;;;;;;17.30;8.20;;;27.60;84.40;;;;;;5074649;28;20055;-41
2022/03/07 00:11:02;;;;;;;12.52;7.68;;;27.60;83.90;;;;;;5074556;28;20021;-39
2022/03/07 00:13:29;;;;;;;16.58;7.47;;;27.60;83.50;;;;;;5058019;28;20303;-40
2022/03/07 00:15:56;;;;;;;12.27;7.63;;;27.60;83.40;;;;;;5076154;28;20319;-47
2022/03/07 00:18:23;;;;;;;14.57;7.32;;;27.60;83.30;;;;;;5071265;28;20076;-41
2022/03/07 00:20:49;;;;;;;11.38;7.38;;;27.60;83.20;;;;;;5066069;28;20029;-43
2022/03/07 00:23:16;;;;;;;15.18;7.22;;;27.60;83.00;;;;;;5070380;28;20028;-45
2022/03/07 00:25:43;;;;;;;16.80;7.20;;;27.50;82.80;;;;;;5085936;28;20028;-46
2022/03/07 00:28:10;;;;;;;13.48;7.70;;;27.50;82.90;;;;;;5085992;28;20023;-44
2022/03/07 00:30:37;;;;;;;14.50;7.63;;;27.50;82.80;;;;;;5085593;28;20036;-45
2022/03/07 00:33:04;;;;;;;13.63;7.88;;;27.50;83.00;;;;;;5086018;28;20040;-44
2022/03/07 00:35:31;;;;;;;11.40;7.60;;;27.50;82.90;;;;;;5085883;28;20024;-45
2022/03/07 00:37:57;;;;;;;25.42;8.32;;;27.50;83.40;;;;;;5086049;28;20039;-49
2022/03/07 00:40:24;;;;;;;10.60;7.03;;;27.50;82.90;;;;;;5085715;28;20015;-45
2022/03/07 00:42:52;;;;;;;14.35;7.65;;;27.50;82.70;;;;;;5085643;28;20025;-46
2022/03/07 00:45:19;;;;;;;13.10;7.60;;;27.50;82.70;;;;;;5085502;28;20063;-46
2022/03/07 00:47:46;;;;;;;16.95;7.50;;;27.50;83.60;;;;;;5085695;28;20016;-42
2022/03/07 00:50:12;;;;;;;15.43;7.68;;;27.50;83.10;;;;;;5085236;28;20020;-47
2022/03/07 00:52:39;;;;;;;18.60;8.02;;;27.50;83.20;;;;;;5085534;28;20047;-43
2022/03/07 00:55:06;;;;;;;13.68;7.97;;;27.40;83.10;;;;;;5085435;28;20327;-44
2022/03/07 00:57:33;;;;;;;12.32;7.88;;;27.40;82.90;;;;;;5085961;28;20320;-48
2022/03/07 00:59:59;;;;;;;13.45;8.25;;;27.40;82.70;;;;;;5085196;28;20051;-42
2022/03/07 01:02:27;;;;;;;17.35;8.10;;;27.40;83.00;;;;;;5085987;28;20020;-41
2022/03/07 01:04:55;;;;;;;15.25;7.50;;;27.50;82.90;;;;;;5084606;28;20056;-40
2022/03/07 01:07:22;;;;;;;12.90;7.53;;;27.40;82.80;;;;;;5085592;28;20042;-44
2022/03/07 01:09:50;;;;;;;15.32;7.85;;;27.40;82.60;;;;;;5085501;28;20084;-44
2022/03/07 01:12:16;;;;;;;13.88;7.90;;;27.40;83.10;;;;;;5078959;28;20088;-43
2022/03/07 01:14:43;;;;;;;8.18;7.20;;;27.40;83.40;;;;;;5074981;28;20032;-43
2022/03/07 01:17:10;;;;;;;14.35;7.60;;;27.40;83.30;;;;;;5080778;28;20312;-41
2022/03/07 01:19:37;;;;;;;14.45;7.43;;;27.40;83.90;;;;;;5084311;28;20236;-47
2022/03/07 01:22:04;;;;;;;9.90;7.22;;;27.40;83.40;;;;;;5079249;28;20025;-42
2022/03/07 01:24:31;;;;;;;10.13;6.97;;;27.40;83.30;;;;;;5064762;28;20194;-50
2022/03/07 01:26:58;;;;;;;12.68;8.77;;;27.40;83.00;;;;;;5065226;28;20029;-41
2022/03/07 01:29:24;;;;;;;13.82;9.93;;;27.40;83.10;;;;;;5064123;28;20033;-47
2022/03/07 01:31:51;;;;;;;18.13;11.13;;;27.40;83.10;;;;;;5064797;28;20213;-41
2022/03/07 01:34:18;;;;;;;16.63;11.73;;;27.40;83.10;;;;;;5064708;28;20084;-43
2022/03/07 01:36:44;;;;;;;21.48;11.70;;;27.40;83.50;;;;;;5064667;28;20031;-45
2022/03/07 01:39:11;;;;;;;21.05;11.23;;;27.30;83.70;;;;;;5069598;28;20021;-45
2022/03/07 01:41:38;;;;;;;16.35;9.38;;;27.30;83.20;;;;;;5064842;28;20251;-47
2022/03/07 01:44:15;;;;;;;17.52;9.52;;;27.30;82.60;;;;;;5063944;28;20355;-47
2022/03/07 01:46:41;;;;;;;16.25;8.95;;;27.30;82.40;;;;;;5064458;28;20222;-44
2022/03/07 01:49:08;;;;;;;20.17;8.35;;;27.30;82.30;;;;;;5064028;28;20036;-48
2022/03/07 01:51:35;;;;;;;12.27;7.75;;;27.30;82.40;;;;;;5064476;28;20033;-47
2022/03/07 01:54:02;;;;;;;15.20;8.10;;;27.30;82.30;;;;;;5046498;28;20017;-41
2022/03/07 01:56:28;;;;;;;13.95;8.30;;;27.30;82.50;;;;;;5066233;28;20059;-40
2022/03/07 01:58:55;;;;;;;15.05;7.93;;;27.30;82.40;;;;;;5066813;28;20189;-43
2022/03/07 02:01:22;;;;;;;16.30;7.50;;;27.30;82.20;;;;;;5064396;28;20071;-48
2022/03/07 02:03:48;;;;;;;15.23;7.97;;;27.30;82.20;;;;;;5064054;28;20041;-41
2022/03/07 02:06:16;;;;;;;15.07;8.32;;;27.30;82.20;;;;;;5063918;28;20048;-44
2022/03/07 02:08:45;;;;;;;12.32;7.10;;;27.30;82.10;;;;;;5069470;28;20263;-47
2022/03/07 02:11:12;;;;;;;9.98;6.68;;;27.30;82.00;;;;;;5076336;28;20063;-49
2022/03/07 02:13:39;;;;;;;9.73;6.07;;;27.20;81.70;;;;;;5083423;28;20017;-42
2022/03/07 02:16:06;;;;;;;10.98;6.35;;;27.20;81.00;;;;;;5084027;28;20029;-41
2022/03/07 02:18:33;;;;;;;10.25;6.40;;;27.20;81.00;;;;;;5071350;28;20040;-41
2022/03/07 02:21:08;;;;;;;12.60;6.22;;;27.20;81.20;;;;;;5066309;28;20017;-44
2022/03/07 02:23:36;;;;;;;11.30;5.60;;;27.20;80.90;;;;;;5063642;28;20025;-44
2022/03/07 02:26:18;;;;;;;19.48;6.45;;;27.20;81.20;;;;;;5067897;28;20035;-44
2022/03/07 02:28:46;;;;;;;12.53;5.97;;;27.20;81.20;;;;;;5083725;28;20086;-43
2022/03/07 02:31:17;;;;;;;11.63;6.20;;;27.20;80.80;;;;;;5083970;28;20024;-41
2022/03/07 02:33:44;;;;;;;14.13;6.13;;;27.20;80.90;;;;;;5083884;28;20021;-44
2022/03/07 02:36:11;;;;;;;14.95;6.20;;;27.10;80.90;;;;;;5083850;28;20571;-42
2022/03/07 02:38:37;;;;;;;11.82;6.40;;;27.10;80.90;;;;;;5083624;28;20024;-47
2022/03/07 02:41:04;;;;;;;11.98;6.13;;;27.10;81.00;;;;;;5083575;28;20041;-43
2022/03/07 02:43:30;;;;;;;12.45;6.25;;;27.10;80.90;;;;;;5083519;28;20330;-46
2022/03/07 02:45:58;;;;;;;11.27;6.15;;;27.10;81.30;;;;;;5083583;28;20078;-43
2022/03/07 02:48:25;;;;;;;15.95;6.63;;;27.10;81.10;;;;;;5083657;28;20028;-43
2022/03/07 02:50:53;;;;;;;12.80;6.60;;;27.10;81.00;;;;;;5083891;28;20016;-41
2022/03/07 02:53:19;;;;;;;17.63;13.70;;;27.10;80.80;;;;;;5083581;28;20052;-44
2022/03/07 02:55:46;;;;;;;22.67;17.85;;;27.10;80.80;;;;;;5083844;28;20263;-45
2022/03/07 02:58:13;;;;;;;36.88;33.22;;;27.10;80.80;;;;;;5083394;28;20044;-41
2022/03/07 03:00:39;;;;;;;24.50;17.40;;;27.20;80.70;;;;;;5083652;28;20096;-42
2022/03/07 03:03:06;;;;;;;17.85;13.88;;;27.10;80.40;;;;;;5083491;28;20130;-42
2022/03/07 03:05:32;;;;;;;17.27;10.63;;;27.20;80.70;;;;;;5083730;28;20074;-43
2022/03/07 03:08:01;;;;;;;12.18;10.60;;;27.20;80.60;;;;;;5083304;28;20055;-41
2022/03/07 03:10:28;;;;;;;59.88;53.83;;;27.20;80.30;;;;;;5065652;28;20324;-44
2022/03/07 03:12:54;;;;;;;29.85;25.27;;;27.20;80.00;;;;;;5065530;28;20120;-45
2022/03/07 03:15:21;;;;;;;34.80;31.13;;;27.20;79.80;;;;;;5083470;28;20008;-44
2022/03/07 03:17:48;;;;;;;16.30;14.55;;;27.20;79.40;;;;;;5083673;28;20033;-44
2022/03/07 03:20:16;;;;;;;15.23;10.75;;;27.20;79.30;;;;;;5083605;28;20024;-48
2022/03/07 03:22:45;;;;;;;13.55;11.25;;;27.20;78.90;;;;;;5084219;28;20107;-41
2022/03/07 03:25:15;;;;;;;13.32;8.85;;;27.20;78.80;;;;;;5086935;28;20051;-44
2022/03/07 03:27:42;;;;;;;17.45;7.57;;;27.20;79.00;;;;;;5085911;28;20031;-41
2022/03/07 03:30:11;;;;;;;11.02;7.28;;;27.20;78.50;;;;;;5086785;28;20029;-41
2022/03/07 03:32:38;;;;;;;8.85;6.10;;;27.20;78.60;;;;;;5087294;28;20331;-44
2022/03/07 03:35:05;;;;;;;10.18;6.60;;;27.20;78.50;;;;;;5087098;28;20309;-41
2022/03/07 03:37:32;;;;;;;9.93;6.38;;;27.20;78.70;;;;;;5087334;28;20024;-40
2022/03/07 03:39:58;;;;;;;12.27;6.30;;;27.20;78.70;;;;;;5086912;28;20298;-45
2022/03/07 03:42:25;;;;;;;10.18;6.43;;;27.20;78.50;;;;;;5087042;28;20029;-41
2022/03/07 03:44:52;;;;;;;11.25;6.13;;;27.20;78.80;;;;;;5087415;28;20096;-41
2022/03/07 03:47:18;;;;;;;8.77;5.57;;;27.20;78.40;;;;;;5087249;28;20020;-41
2022/03/07 03:49:45;;;;;;;12.35;5.47;;;27.20;78.30;;;;;;5086729;28;20317;-41
2022/03/07 03:52:11;;;;;;;16.67;5.80;;;27.20;78.00;;;;;;5086744;28;20084;-41
2022/03/07 03:54:38;;;;;;;8.13;5.13;;;27.20;78.10;;;;;;5086467;28;20035;-42
2022/03/07 03:57:05;;;;;;;8.43;5.10;;;27.20;77.90;;;;;;5052535;28;20053;-41
2022/03/07 03:59:33;;;;;;;9.25;5.15;;;27.20;77.80;;;;;;5068925;28;20036;-43
2022/03/07 04:02:00;;;;;;;6.57;4.82;;;27.20;78.00;;;;;;5086949;28;20032;-41
2022/03/07 04:04:27;;;;;;;8.40;4.65;;;27.20;78.10;;;;;;5086531;28;20050;-43
2022/03/07 04:06:53;;;;;;;7.60;4.70;;;27.20;78.00;;;;;;5087111;28;20044;-44
2022/03/07 04:09:21;;;;;;;10.25;4.93;;;27.20;78.10;;;;;;5086355;28;20028;-43
2022/03/07 04:11:49;;;;;;;8.23;4.93;;;27.20;78.10;;;;;;5086831;28;20051;-40
2022/03/07 04:14:16;;;;;;;6.50;4.95;;;27.20;78.40;;;;;;5086250;28;20025;-43
2022/03/07 04:16:43;;;;;;;8.93;5.10;;;27.20;78.50;;;;;;5086491;28;20012;-42
2022/03/07 04:19:15;;;;;;;9.00;4.88;;;27.20;78.80;;;;;;5086118;28;20036;-44
2022/03/07 04:21:42;;;;;;;8.70;4.97;;;27.20;78.90;;;;;;5069381;28;20052;-40
2022/03/07 04:24:11;;;;;;;8.02;5.22;;;27.20;79.00;;;;;;5086107;28;20098;-42
2022/03/07 04:26:39;;;;;;;11.80;5.30;;;27.20;79.50;;;;;;5086132;28;20091;-40
2022/03/07 04:29:08;;;;;;;11.02;5.25;;;27.30;79.50;;;;;;5085970;28;20016;-43
2022/03/07 04:31:39;;;;;;;11.02;5.38;;;27.20;79.50;;;;;;5085820;28;20107;-42
2022/03/07 04:34:07;;;;;;;9.32;5.05;;;27.20;79.50;;;;;;5085248;28;20024;-42
2022/03/07 04:36:35;;;;;;;7.95;4.53;;;27.20;79.70;;;;;;5086107;28;20040;-41
2022/03/07 04:39:03;;;;;;;13.13;5.10;;;27.20;79.40;;;;;;5085746;28;20276;-42
2022/03/07 04:41:30;;;;;;;7.32;4.70;;;27.20;79.30;;;;;;5086241;28;20017;-43
2022/03/07 04:43:57;;;;;;;10.55;4.55;;;27.20;79.30;;;;;;5085324;28;20343;-46
2022/03/07 04:46:24;;;;;;;10.15;5.00;;;27.20;79.40;;;;;;5085781;28;20063;-43
2022/03/07 04:48:50;;;;;;;8.75;4.53;;;27.20;79.20;;;;;;5085424;28;20033;-43
2022/03/07 04:51:17;;;;;;;9.52;4.82;;;27.20;79.40;;;;;;5085640;28;20305;-39
2022/03/07 04:53:44;;;;;;;8.50;4.57;;;27.20;79.30;;;;;;5067593;28;20216;-44
2022/03/07 04:56:11;;;;;;;8.90;4.80;;;27.20;79.40;;;;;;5085666;28;20376;-41
2022/03/07 04:58:38;;;;;;;9.52;4.40;;;27.20;79.10;;;;;;5085203;28;20029;-41
2022/03/07 05:01:05;;;;;;;9.70;4.60;;;27.20;78.90;;;;;;5085460;28;20051;-42
2022/03/07 05:03:32;;;;;;;6.15;4.30;;;27.20;78.50;;;;;;5085326;28;20051;-44
2022/03/07 05:06:00;;;;;;;7.40;4.05;;;27.20;78.50;;;;;;5085304;28;20064;-40
2022/03/07 05:08:26;;;;;;;6.72;4.15;;;27.20;78.60;;;;;;5085410;28;20078;-45
2022/03/07 05:10:53;;;;;;;6.38;4.22;;;27.20;78.50;;;;;;5085432;28;20031;-41
2022/03/07 05:13:20;;;;;;;8.93;4.30;;;27.20;78.50;;;;;;5085083;28;20091;-46
2022/03/07 05:15:46;;;;;;;10.27;4.20;;;27.10;78.30;;;;;;5085095;28;20021;-43
2022/03/07 05:18:14;;;;;;;11.27;4.25;;;27.10;78.10;;;;;;5085217;28;20075;-42
2022/03/07 05:20:41;;;;;;;15.40;4.30;;;27.10;78.20;;;;;;5085189;28;20200;-44
2022/03/07 05:23:11;;;;;;;7.57;4.28;;;27.10;78.00;;;;;;5084902;28;20048;-46
2022/03/07 05:25:37;;;;;;;6.18;3.80;;;27.10;77.90;;;;;;5051076;28;20025;-41
2022/03/07 05:28:04;;;;;;;10.65;4.13;;;27.10;78.20;;;;;;5084926;28;20201;-41
2022/03/07 05:30:31;;;;;;;12.45;3.83;;;27.10;78.20;;;;;;5084813;28;20079;-43
2022/03/07 05:32:57;;;;;;;8.32;3.67;;;27.10;78.00;;;;;;5067042;28;20071;-41
2022/03/07 05:35:24;;;;;;;7.35;4.20;;;27.10;78.00;;;;;;5084850;28;20031;-41
2022/03/07 05:37:51;;;;;;;6.35;3.72;;;27.00;78.00;;;;;;5084735;28;20032;-43
2022/03/07 05:40:18;;;;;;;7.30;3.55;;;27.00;78.00;;;;;;5066940;28;20066;-42
2022/03/07 05:42:45;;;;;;;5.13;3.40;;;27.00;77.80;;;;;;5084530;28;20032;-44
2022/03/07 05:45:14;;;;;;;9.10;3.72;;;27.00;77.60;;;;;;5083661;28;20043;-46
2022/03/07 05:47:42;;;;;;;8.27;3.75;;;27.00;77.50;;;;;;5084604;28;20100;-40
2022/03/07 05:50:13;;;;;;;5.32;3.30;;;27.00;77.10;;;;;;5084324;28;20028;-44
2022/03/07 05:52:40;;;;;;;6.20;3.25;;;27.00;76.60;;;;;;5084333;28;20047;-41
2022/03/07 05:55:07;;;;;;;7.00;3.08;;;27.00;75.90;;;;;;5084477;28;20017;-41
2022/03/07 05:57:34;;;;;;;11.18;3.10;;;26.90;75.10;;;;;;5084329;28;20028;-43
2022/03/07 06:00:01;;;;;;;6.00;3.25;;;27.00;75.30;;;;;;5084376;28;20032;-43
2022/03/07 06:02:28;;;;;;;4.72;2.70;;;27.00;74.90;;;;;;5084760;28;20377;-43
2022/03/07 06:04:54;;;;;;;5.35;3.00;;;26.90;75.00;;;;;;5083987;28;20055;-42
2022/03/07 06:07:21;;;;;;;5.38;3.03;;;26.90;73.60;;;;;;5084642;28;20037;-43
2022/03/07 06:09:47;;;;;;;4.93;2.90;;;26.90;74.20;;;;;;5084182;28;20033;-43
2022/03/07 06:12:14;;;;;;;7.25;2.85;;;26.90;73.40;;;;;;5084037;28;20212;-40
2022/03/07 06:14:41;;;;;;;4.60;2.88;;;27.00;73.70;;;;;;5084116;28;20032;-41
2022/03/07 06:17:07;;;;;;;5.45;2.72;;;27.00;72.90;;;;;;5084784;28;20025;-45
2022/03/07 06:19:34;;;;;;;6.13;2.67;;;27.00;73.10;;;;;;5084141;28;20031;-43
2022/03/07 06:22:00;;;;;;;6.90;2.72;;;26.90;73.20;;;;;;5084515;28;20043;-42
2022/03/07 06:24:29;;;;;;;3.47;2.60;;;26.90;72.80;;;;;;5083956;28;20056;-45
2022/03/07 06:26:57;;;;;;;5.20;2.90;;;26.90;72.50;;;;;;5084288;28;20359;-42
2022/03/07 06:29:23;;;;;;;4.88;2.80;;;26.90;72.40;;;;;;5083743;28;20389;-42
2022/03/07 06:31:50;;;;;;;5.32;2.50;;;26.90;72.40;;;;;;5084273;28;20013;-44
2022/03/07 06:34:17;;;;;;;7.13;3.00;;;26.90;72.70;;;;;;5083947;28;20033;-43
2022/03/07 06:36:44;;;;;;;6.40;2.40;;;26.90;72.00;;;;;;5084455;28;20422;-42
2022/03/07 06:39:10;;;;;;;5.97;2.50;;;26.90;72.80;;;;;;5083993;28;20032;-41
2022/03/07 06:41:37;;;;;;;4.45;2.40;;;26.90;71.50;;;;;;5084138;28;20024;-43
2022/03/07 06:44:04;;;;;;;5.07;2.40;;;26.90;72.70;;;;;;5083734;28;20028;-42
2022/03/07 06:46:31;;;;;;;9.52;3.00;;;26.90;71.80;;;;;;5084221;28;20146;-41
2022/03/07 06:48:57;;;;;;;4.22;2.53;;;26.90;71.90;;;;;;5084312;28;20056;-42
2022/03/07 06:51:24;;;;;;;7.45;3.00;;;26.90;72.00;;;;;;5083715;28;20092;-42
2022/03/07 06:53:51;;;;;;;5.60;2.50;;;26.90;71.80;;;;;;5084043;28;20095;-41
2022/03/07 06:56:17;;;;;;;9.93;2.65;;;26.90;71.40;;;;;;5083985;28;20331;-46
2022/03/07 06:58:46;;;;;;;6.70;2.67;;;26.80;71.20;;;;;;5087689;28;20040;-43
2022/03/07 07:01:13;;;;;;;6.30;2.53;;;26.90;71.90;;;;;;5087924;28;20067;-41
2022/03/07 07:03:39;;;;;;;6.72;2.60;;;26.80;72.00;;;;;;5087809;28;20162;-49
2022/03/07 07:06:06;;;;;;;6.80;2.80;;;26.80;72.10;;;;;;5087395;28;20060;-48
2022/03/07 07:08:32;;;;;;;7.80;2.65;;;26.80;72.30;;;;;;5087715;28;20339;-49
2022/03/07 07:10:59;;;;;;;8.82;2.63;;;26.80;72.10;;;;;;5087767;28;20025;-42
2022/03/07 07:13:25;;;;;;;6.47;2.47;;;26.80;72.30;;;;;;5087271;28;20221;-41
2022/03/07 07:15:55;;;;;;;5.30;2.72;;;26.70;72.60;;;;;;5087783;28;20028;-44
2022/03/07 07:18:23;;;;;;;6.40;2.85;;;26.80;72.20;;;;;;5087498;28;20032;-50
2022/03/07 07:20:50;;;;;;;5.18;2.90;;;26.70;72.50;;;;;;5087132;28;20023;-49
2022/03/07 07:23:21;;;;;;;3.38;2.78;;;26.70;72.80;;;;;;5087895;28;20029;-51
2022/03/07 07:25:48;;;;;;;5.97;2.78;;;26.70;72.90;;;;;;5087194;28;20024;-55
2022/03/07 07:28:15;;;;;;;5.25;2.20;;;26.70;72.90;;;;;;5087032;28;20351;-44
2022/03/07 07:30:42;;;;;;;6.18;2.67;;;26.70;73.20;;;;;;5087199;28;20196;-41
2022/03/07 07:33:09;;;;;;;3.70;2.70;;;26.60;73.00;;;;;;5086936;28;20028;-42
2022/03/07 07:35:36;;;;;;;5.15;2.60;;;26.70;73.40;;;;;;5087200;28;20288;-42
2022/03/07 07:38:04;;;;;;;3.75;2.40;;;26.60;73.70;;;;;;5087220;28;20224;-47
2022/03/07 07:40:31;;;;;;;5.28;2.90;;;26.60;73.70;;;;;;5087175;28;20064;-44
2022/03/07 07:42:58;;;;;;;5.88;2.45;;;26.60;73.40;;;;;;5086946;28;20198;-43
2022/03/07 07:45:25;;;;;;;4.25;2.53;;;26.60;73.70;;;;;;5087042;28;20016;-43
2022/03/07 07:47:52;;;;;;;4.97;2.83;;;26.60;73.90;;;;;;5086860;28;20040;-46
2022/03/07 07:50:19;;;;;;;3.95;2.50;;;26.60;74.10;;;;;;5086423;28;20028;-42
2022/03/07 07:52:46;;;;;;;4.65;2.72;;;26.60;74.40;;;;;;5087347;28;20125;-49
2022/03/07 07:55:13;;;;;;;4.32;2.88;;;26.60;74.60;;;;;;5086937;28;20028;-42
2022/03/07 07:57:40;;;;;;;9.98;2.53;;;26.60;74.30;;;;;;5086743;28;20180;-44
2022/03/07 08:00:08;;;;;;;6.13;2.60;;;26.60;74.10;;;;;;5086588;28;20059;-42
2022/03/07 08:02:35;;;;;;;2.70;2.50;;;26.60;73.80;;;;;;5086604;28;20032;-42
2022/03/07 08:05:02;;;;;;;5.25;2.80;;;26.60;74.10;;;;;;5086142;28;20115;-41
2022/03/07 08:07:29;;;;;;;12.27;3.13;;;26.60;74.30;;;;;;5086964;28;20025;-41
2022/03/07 08:09:55;;;;;;;10.27;3.20;;;26.60;73.50;;;;;;5085532;28;20099;-43
2022/03/07 08:12:22;;;;;;;3.90;2.70;;;26.60;73.70;;;;;;5086419;28;20087;-43
2022/03/07 08:14:49;;;;;;;8.40;3.13;;;26.60;73.40;;;;;;5086545;28;20028;-45
2022/03/07 08:17:16;;;;;;;5.15;2.80;;;26.60;73.40;;;;;;5068540;28;20220;-44
2022/03/07 08:19:42;;;;;;;7.55;2.83;;;26.60;73.10;;;;;;5086203;28;20024;-48
2022/03/07 08:22:09;;;;;;;8.10;2.90;;;26.60;73.20;;;;;;5086712;28;20036;-42
2022/03/07 08:24:35;;;;;;;7.53;2.60;;;26.60;73.00;;;;;;5086217;28;20224;-42
2022/03/07 08:27:03;;;;;;;8.02;3.10;;;26.60;73.30;;;;;;5086428;28;20030;-42
2022/03/07 08:29:29;;;;;;;5.35;2.78;;;26.60;73.10;;;;;;5085955;28;20094;-48
2022/03/07 08:31:56;;;;;;;5.63;2.30;;;26.60;72.80;;;;;;5086461;28;20087;-42
2022/03/07 08:34:22;;;;;;;8.00;2.65;;;26.60;72.80;;;;;;5086009;28;20048;-46
2022/03/07 08:36:49;;;;;;;6.22;2.72;;;26.60;72.50;;;;;;5086459;28;20013;-41
2022/03/07 08:39:16;;;;;;;5.07;2.60;;;26.60;72.60;;;;;;5085953;28;20332;-43
2022/03/07 08:41:42;;;;;;;4.68;2.90;;;26.60;72.80;;;;;;5085889;28;20182;-51
2022/03/07 08:44:09;;;;;;;6.38;2.70;;;26.60;72.50;;;;;;5085753;28;20077;-41
2022/03/07 08:46:36;;;;;;;3.97;2.60;;;26.60;72.50;;;;;;5085898;28;20116;-42
2022/03/07 08:49:02;;;;;;;5.63;2.80;;;26.60;72.40;;;;;;5085908;28;20024;-43
2022/03/07 08:51:29;;;;;;;5.40;2.78;;;26.60;72.80;;;;;;5085719;28;20066;-43
2022/03/07 08:53:55;;;;;;;5.50;2.60;;;26.60;72.60;;;;;;5085797;28;20038;-45
2022/03/07 08:56:22;;;;;;;4.15;2.42;;;26.60;72.60;;;;;;5086009;28;20091;-41
2022/03/07 08:58:49;;;;;;;6.90;3.33;;;26.60;72.40;;;;;;5085652;28;20096;-42
2022/03/07 09:01:18;;;;;;;7.78;2.90;;;26.60;72.50;;;;;;5085723;28;20043;-41
2022/03/07 09:03:45;;;;;;;7.75;3.00;;;26.60;72.60;;;;;;5085455;28;20032;-41
2022/03/07 09:06:12;;;;;;;7.25;3.00;;;26.60;72.40;;;;;;5085180;28;20072;-46
2022/03/07 09:08:38;;;;;;;6.95;3.00;;;26.60;72.40;;;;;;5085169;28;20028;-42
2022/03/07 09:11:05;;;;;;;4.97;2.58;;;26.60;72.50;;;;;;5085329;28;20036;-42
2022/03/07 09:13:31;;;;;;;4.47;2.72;;;26.60;72.60;;;;;;5085091;28;20213;-43
2022/03/07 09:15:58;;;;;;;6.47;2.95;;;26.60;72.50;;;;;;5086070;28;20027;-42
2022/03/07 09:18:26;;;;;;;7.63;3.30;;;26.60;72.60;;;;;;5085556;28;20112;-42
2022/03/07 09:20:54;;;;;;;6.55;3.00;;;26.60;72.40;;;;;;5085586;28;20178;-42
2022/03/07 09:23:21;;;;;;;5.13;3.00;;;26.60;72.50;;;;;;5085150;28;20028;-42
2022/03/07 09:25:47;;;;;;;7.68;2.97;;;26.60;72.70;;;;;;5084922;28;20038;-41
2022/03/07 09:28:14;;;;;;;6.90;3.17;;;26.60;72.20;;;;;;5085009;28;20333;-41
2022/03/07 09:30:41;;;;;;;7.57;3.22;;;26.60;72.60;;;;;;5084791;28;20296;-43
2022/03/07 09:33:07;;;;;;;5.65;3.22;;;26.60;72.60;;;;;;5084913;28;20025;-42
2022/03/07 09:35:34;;;;;;;5.88;3.08;;;26.60;72.30;;;;;;5084717;28;20328;-42
2022/03/07 09:38:01;;;;;;;7.38;2.92;;;26.50;72.50;;;;;;5085138;28;20032;-42
2022/03/07 09:40:28;;;;;;;6.40;3.13;;;26.50;72.30;;;;;;5084871;28;20027;-41
2022/03/07 09:42:54;;;;;;;6.72;2.90;;;26.50;72.60;;;;;;5084450;28;20029;-45
2022/03/07 09:45:21;;;;;;;7.05;3.40;;;26.50;72.40;;;;;;5084766;28;20074;-48
2022/03/07 09:47:50;;;;;;;6.97;3.30;;;26.50;72.40;;;;;;5084808;28;20028;-49
2022/03/07 09:50:16;;;;;;;7.57;3.10;;;26.50;72.30;;;;;;5084116;28;20032;-43
2022/03/07 09:52:45;;;;;;;8.55;2.85;;;26.50;72.20;;;;;;5084886;28;20023;-43
2022/03/07 09:55:14;;;;;;;6.47;2.70;;;26.50;72.00;;;;;;5084492;28;20060;-43
2022/03/07 09:57:41;;;;;;;7.78;2.90;;;26.50;71.80;;;;;;5084320;28;20025;-43
2022/03/07 10:00:09;;;;;;;8.20;2.95;;;26.50;71.80;;;;;;5084176;28;20032;-41
2022/03/07 10:02:36;;;;;;;7.00;3.17;;;26.50;71.60;;;;;;5084372;28;20024;-42
2022/03/07 10:05:05;;;;;;;8.38;3.13;;;26.50;71.10;;;;;;5084080;28;20036;-42
2022/03/07 10:07:43;;;;;;;7.30;2.90;;;26.50;71.30;;;;;;5084842;28;20209;-43
2022/03/07 10:10:10;;;;;;;5.15;2.92;;;26.50;70.90;;;;;;5083810;28;20024;-42
2022/03/07 10:12:50;;;;;;;5.32;2.80;;;26.40;71.00;;;;;;5084239;28;20032;-42
2022/03/07 10:15:20;;;;;;;4.97;2.92;;;26.50;70.80;;;;;;5084133;28;20012;-41
2022/03/07 10:17:52;;;;;;;7.22;2.90;;;26.50;71.00;;;;;;5084288;28;20036;-43
2022/03/07 10:20:21;;;;;;;3.90;2.42;;;26.50;71.20;;;;;;5083968;28;20051;-42
2022/03/07 10:22:50;;;;;;;8.85;3.10;;;26.50;70.70;;;;;;5084035;28;20259;-42
2022/03/07 10:25:22;;;;;;;5.93;2.40;;;26.50;70.30;;;;;;5083787;28;20021;-45
2022/03/07 10:27:50;;;;;;;7.00;3.00;;;26.50;70.60;;;;;;5084036;28;20043;-49
2022/03/07 10:30:25;;;;;;;4.55;2.70;;;26.50;71.00;;;;;;5083737;28;20216;-40
2022/03/07 10:32:56;;;;;;;5.00;2.60;;;26.50;70.70;;;;;;5083624;28;20096;-41
2022/03/07 10:35:49;;;;;;;10.20;2.63;;;26.40;70.40;;;;;;5084077;28;20016;-37
2022/03/07 10:38:17;;;;;;;6.07;2.70;;;26.50;70.30;;;;;;5084007;28;20047;-41
2022/03/07 10:40:52;;;;;;;5.93;2.70;;;26.40;70.40;;;;;;5083765;28;20182;-41
2022/03/07 10:43:19;;;;;;;9.15;3.15;;;26.40;70.50;;;;;;5083941;28;20198;-45
2022/03/07 10:45:58;;;;;;;6.75;3.38;;;26.40;70.70;;;;;;5083768;28;20036;-42
2022/03/07 10:48:28;;;;;;;6.20;3.58;;;26.40;70.60;;;;;;5083695;28;20032;-47
2022/03/07 10:50:58;;;;;;;5.57;3.00;;;26.40;70.60;;;;;;5083770;28;20060;-41
2022/03/07 10:53:26;;;;;;;11.65;3.35;;;26.40;70.00;;;;;;5083525;28;20039;-46
2022/03/07 10:56:00;;;;;;;8.05;2.97;;;26.40;70.60;;;;;;5083899;28;20088;-43
2022/03/07 10:58:29;;;;;;;7.57;3.15;;;26.30;70.40;;;;;;5083727;28;20324;-44
2022/03/07 11:01:01;;;;;;;9.73;2.85;;;26.40;70.40;;;;;;5083697;28;20032;-43
2022/03/07 11:03:30;;;;;;;5.95;2.63;;;26.40;70.60;;;;;;5083744;28;20027;-43
2022/03/07 11:05:58;;;;;;;12.55;3.08;;;26.30;70.40;;;;;;5083417;28;20048;-42
2022/03/07 11:08:25;;;;;;;9.98;3.17;;;26.30;70.20;;;;;;5083485;28;20070;-43
2022/03/07 11:10:54;;;;;;;20.35;5.18;;;26.30;70.30;;;;;;5083299;28;20229;-41
2022/03/07 11:13:26;;;;;;;8.60;3.00;;;26.30;70.90;;;;;;5083430;28;20096;-41
2022/03/07 11:16:03;;;;;;;14.02;3.00;;;26.30;71.20;;;;;;5083532;28;20239;-42
2022/03/07 11:18:31;;;;;;;12.00;2.88;;;26.30;71.40;;;;;;5083604;28;20032;-48
2022/03/07 11:20:59;;;;;;;19.70;4.15;;;26.30;71.40;;;;;;5065567;28;20017;-43
2022/03/07 11:23:26;;;;;;;8.27;2.92;;;26.30;71.60;;;;;;5083535;28;20036;-49
2022/03/07 11:25:58;;;;;;;13.45;3.03;;;26.30;71.70;;;;;;5083564;28;20032;-40
2022/03/07 11:28:27;;;;;;;11.95;3.45;;;26.30;71.70;;;;;;5083430;28;20055;-48
2022/03/07 11:30:54;;;;;;;14.15;3.55;;;26.30;72.10;;;;;;5084163;28;20088;-46
2022/03/07 11:33:33;;;;;;;12.50;3.30;;;26.30;72.50;;;;;;5083301;28;20017;-42
2022/03/07 11:36:02;;;;;;;17.20;3.47;;;26.30;72.50;;;;;;5082310;28;20051;-45
2022/03/07 11:38:31;;;;;;;6.50;3.03;;;26.30;72.50;;;;;;5081971;28;20151;-41
2022/03/07 11:41:12;;;;;;;15.88;3.35;;;26.30;72.90;;;;;;5081799;28;20062;-46
2022/03/07 11:43:56;;;;;;;12.13;3.20;;;26.30;73.00;;;;;;5082736;28;20025;-42
2022/03/07 11:46:42;;;;;;;10.80;3.63;;;26.30;72.90;;;;;;5085888;28;20008;-45
2022/03/07 11:49:11;;;;;;;11.23;3.55;;;26.30;73.30;;;;;;5085157;28;20045;-43
2022/03/07 11:51:40;;;;;;;12.80;4.25;;;26.30;73.30;;;;;;5086677;28;20284;-45
2022/03/07 11:54:18;;;;;;;8.13;4.07;;;26.30;73.30;;;;;;5086658;28;20280;-46
2022/03/07 11:56:44;;;;;;;10.27;4.05;;;26.40;73.50;;;;;;5086594;28;20389;-44
2022/03/07 11:59:11;;;;;;;11.77;4.78;;;26.40;73.90;;;;;;5086572;28;20039;-43
2022/03/07 12:01:38;;;;;;;15.95;4.15;;;26.40;74.10;;;;;;5086967;28;20048;-43
2022/03/07 12:04:16;;;;;;;8.00;3.80;;;26.40;74.20;;;;;;5086435;28;20087;-45
2022/03/07 12:06:48;;;;;;;9.70;3.67;;;26.40;74.40;;;;;;5086825;28;20055;-44
2022/03/07 12:09:35;;;;;;;9.52;4.05;;;26.40;74.50;;;;;;5086370;28;20102;-42
2022/03/07 12:12:05;;;;;;;11.73;4.15;;;26.40;75.10;;;;;;5086868;28;20320;-42
2022/03/07 12:14:43;;;;;;;7.10;3.92;;;26.40;75.40;;;;;;5086601;28;20096;-42
2022/03/07 12:17:15;;;;;;;7.88;4.25;;;26.40;75.10;;;;;;5086851;28;20032;-44
2022/03/07 12:19:43;;;;;;;10.75;3.78;;;26.40;75.10;;;;;;5086533;28;20047;-48
2022/03/07 12:22:15;;;;;;;8.75;4.18;;;26.40;75.40;;;;;;5086672;28;20186;-44
2022/03/07 12:24:43;;;;;;;13.02;3.97;;;26.40;75.50;;;;;;5086441;28;20028;-49
2022/03/07 12:27:10;;;;;;;8.05;4.18;;;26.40;75.70;;;;;;5086417;28;20344;-44
2022/03/07 12:29:43;;;;;;;6.72;4.20;;;26.40;75.70;;;;;;5085907;28;20032;-43
2022/03/07 12:32:11;;;;;;;7.03;4.40;;;26.40;75.80;;;;;;5086634;28;20025;-44
2022/03/07 12:34:43;;;;;;;8.65;4.50;;;26.40;75.70;;;;;;5086063;28;20024;-46
2022/03/07 12:37:11;;;;;;;11.93;4.80;;;26.40;75.70;;;;;;5086400;28;20017;-44
2022/03/07 12:39:44;;;;;;;12.70;4.82;;;26.40;75.40;;;;;;5086384;28;20037;-42
2022/03/07 12:42:11;;;;;;;8.68;4.80;;;26.40;75.50;;;;;;5086425;28;20026;-44
2022/03/07 12:44:39;;;;;;;12.70;5.10;;;26.50;75.70;;;;;;5085990;28;20044;-42
2022/03/07 12:47:07;;;;;;;11.00;5.80;;;26.50;75.80;;;;;;5086142;28;20021;-44